sensor_id;sensor_type;location;lat;lon;timestamp;noise_LAeq;noise_LA_min;noise_LA_max;noise_LA01;noise_LA95
69614;Laerm;57159;52.472;4.750;2023-01-29T00:00:07;36.58;35.59;37.53;;
69614;Laerm;57159;52.472;4.750;2023-01-29T00:00:19;36.70;35.42;38.43;;
69614;Laerm;57159;52.472;4.750;2023-01-29T00:00:30;36.54;35.46;37.61;;
69614;Laerm;57159;52.472;4.750;2023-01-29T00:00:40;36.57;35.49;37.52;;
69614;Laerm;57159;52.472;4.750;2023-01-29T00:00:51;36.55;35.47;37.71;;
69614;Laerm;57159;52.472;4.750;2023-01-29T00:01:02;36.59;35.36;37.66;;
69614;Laerm;57159;52.472;4.750;2023-01-29T00:01:13;36.53;35.58;37.68;;
69614;Laerm;57159;52.472;4.750;2023-01-29T00:01:23;36.54;35.56;37.58;;
69614;Laerm;57159;52.472;4.750;2023-01-29T00:01:34;36.60;35.57;37.73;;
69614;Laerm;57159;52.472;4.750;2023-01-29T00:01:44;36.55;35.65;37.60;;
69614;Laerm;57159;52.472;4.750;2023-01-29T00:01:54;36.63;35.46;37.82;;
69614;Laerm;57159;52.472;4.750;2023-01-29T00:02:05;36.58;35.33;37.81;;
69614;Laerm;57159;52.472;4.750;2023-01-29T00:02:15;36.53;35.56;37.56;;
69614;Laerm;57159;52.472;4.750;2023-01-29T00:02:25;36.55;35.62;37.54;;
69614;Laerm;57159;52.472;4.750;2023-01-29T00:02:36;36.55;35.63;37.49;;
69614;Laerm;57159;52.472;4.750;2023-01-29T00:02:46;36.56;35.54;37.57;;
69614;Laerm;57159;52.472;4.750;2023-01-29T00:02:56;36.56;35.69;37.58;;
69614;Laerm;57159;52.472;4.750;2023-01-29T00:03:07;36.60;35.68;37.76;;
69614;Laerm;57159;52.472;4.750;2023-01-29T00:03:17;36.56;35.68;37.56;;
69614;Laerm;57159;52.472;4.750;2023-01-29T00:03:27;36.59;35.58;37.57;;
69614;Laerm;57159;52.472;4.750;2023-01-29T00:03:37;36.60;35.61;37.43;;
69614;Laerm;57159;52.472;4.750;2023-01-29T00:03:49;36.57;35.58;37.61;;
69614;Laerm;57159;52.472;4.750;2023-01-29T00:03:59;36.53;35.52;37.74;;
69614;Laerm;57159;52.472;4.750;2023-01-29T00:04:10;36.56;35.70;37.84;;
69614;Laerm;57159;52.472;4.750;2023-01-29T00:04:20;36.56;35.60;37.61;;
69614;Laerm;57159;52.472;4.750;2023-01-29T00:04:31;36.54;35.49;37.59;;
69614;Laerm;57159;52.472;4.750;2023-01-29T00:04:41;36.49;35.60;37.73;;
69614;Laerm;57159;52.472;4.750;2023-01-29T00:04:51;36.50;35.41;37.86;;
69614;Laerm;57159;52.472;4.750;2023-01-29T00:05:03;36.56;35.45;37.53;;
69614;Laerm;57159;52.472;4.750;2023-01-29T00:05:14;36.55;35.59;37.44;;
69614;Laerm;57159;52.472;4.750;2023-01-29T00:05:24;36.52;35.34;37.77;;
69614;Laerm;57159;52.472;4.750;2023-01-29T00:05:35;36.52;35.46;37.70;;
69614;Laerm;57159;52.472;4.750;2023-01-29T00:05:45;36.52;35.48;37.71;;
69614;Laerm;57159;52.472;4.750;2023-01-29T00:05:55;36.52;35.60;37.66;;
69614;Laerm;57159;52.472;4.750;2023-01-29T00:06:06;36.54;35.40;37.76;;
69614;Laerm;57159;52.472;4.750;2023-01-29T00:06:17;36.48;35.56;37.68;;
69614;Laerm;57159;52.472;4.750;2023-01-29T00:06:28;36.55;35.49;38.15;;
69614;Laerm;57159;52.472;4.750;2023-01-29T00:06:38;36.46;35.33;37.61;;
69614;Laerm;57159;52.472;4.750;2023-01-29T00:06:49;36.52;35.55;37.50;;
69614;Laerm;57159;52.472;4.750;2023-01-29T00:06:59;36.48;35.46;37.60;;
69614;Laerm;57159;52.472;4.750;2023-01-29T00:07:09;36.50;35.57;37.57;;
69614;Laerm;57159;52.472;4.750;2023-01-29T00:07:20;36.54;35.55;37.62;;
69614;Laerm;57159;52.472;4.750;2023-01-29T00:07:30;36.55;35.61;37.66;;
69614;Laerm;57159;52.472;4.750;2023-01-29T00:07:40;36.53;35.58;37.57;;
69614;Laerm;57159;52.472;4.750;2023-01-29T00:07:51;36.51;35.52;37.52;;
69614;Laerm;57159;52.472;4.750;2023-01-29T00:08:01;36.53;35.49;37.66;;
69614;Laerm;57159;52.472;4.750;2023-01-29T00:08:11;36.54;35.40;37.54;;
69614;Laerm;57159;52.472;4.750;2023-01-29T00:08:21;36.53;35.32;37.51;;
69614;Laerm;57159;52.472;4.750;2023-01-29T00:08:35;36.55;35.51;37.74;;
69614;Laerm;57159;52.472;4.750;2023-01-29T00:08:46;36.49;35.39;37.70;;
69614;Laerm;57159;52.472;4.750;2023-01-29T00:08:56;36.48;35.46;37.36;;
69614;Laerm;57159;52.472;4.750;2023-01-29T00:09:06;36.46;35.38;37.48;;
69614;Laerm;57159;52.472;4.750;2023-01-29T00:09:16;36.44;35.56;37.31;;
69614;Laerm;57159;52.472;4.750;2023-01-29T00:09:27;36.49;35.67;37.52;;
69614;Laerm;57159;52.472;4.750;2023-01-29T00:09:37;36.42;35.45;37.70;;
69614;Laerm;57159;52.472;4.750;2023-01-29T00:09:49;36.47;35.47;37.40;;
69614;Laerm;57159;52.472;4.750;2023-01-29T00:09:59;36.54;35.59;37.78;;
69614;Laerm;57159;52.472;4.750;2023-01-29T00:10:09;36.47;35.61;37.44;;
69614;Laerm;57159;52.472;4.750;2023-01-29T00:10:20;36.45;35.46;37.61;;
69614;Laerm;57159;52.472;4.750;2023-01-29T00:10:30;36.51;35.10;37.64;;
69614;Laerm;57159;52.472;4.750;2023-01-29T00:10:40;36.44;35.43;37.33;;
69614;Laerm;57159;52.472;4.750;2023-01-29T00:10:51;36.51;35.20;37.50;;
69614;Laerm;57159;52.472;4.750;2023-01-29T00:11:01;36.51;35.50;37.51;;
69614;Laerm;57159;52.472;4.750;2023-01-29T00:11:12;36.47;35.50;37.42;;
69614;Laerm;57159;52.472;4.750;2023-01-29T00:11:23;36.48;35.53;37.43;;
69614;Laerm;57159;52.472;4.750;2023-01-29T00:11:34;36.51;35.52;37.46;;
69614;Laerm;57159;52.472;4.750;2023-01-29T00:11:45;36.45;35.30;37.69;;
69614;Laerm;57159;52.472;4.750;2023-01-29T00:11:55;36.48;35.27;37.54;;
69614;Laerm;57159;52.472;4.750;2023-01-29T00:12:06;36.47;35.44;37.63;;
69614;Laerm;57159;52.472;4.750;2023-01-29T00:12:19;36.48;35.57;37.64;;
69614;Laerm;57159;52.472;4.750;2023-01-29T00:12:29;36.45;35.36;37.53;;
69614;Laerm;57159;52.472;4.750;2023-01-29T00:12:39;36.44;35.31;37.53;;
69614;Laerm;57159;52.472;4.750;2023-01-29T00:12:49;36.46;35.33;37.87;;
69614;Laerm;57159;52.472;4.750;2023-01-29T00:13:00;36.39;35.42;37.62;;
69614;Laerm;57159;52.472;4.750;2023-01-29T00:13:10;36.42;35.25;37.49;;
69614;Laerm;57159;52.472;4.750;2023-01-29T00:13:21;36.45;35.64;37.41;;
69614;Laerm;57159;52.472;4.750;2023-01-29T00:13:31;36.45;35.51;37.57;;
69614;Laerm;57159;52.472;4.750;2023-01-29T00:13:43;36.51;35.51;37.81;;
69614;Laerm;57159;52.472;4.750;2023-01-29T00:13:53;36.49;35.50;37.66;;
69614;Laerm;57159;52.472;4.750;2023-01-29T00:14:04;36.48;35.61;37.63;;
69614;Laerm;57159;52.472;4.750;2023-01-29T00:14:14;36.49;35.46;37.59;;
69614;Laerm;57159;52.472;4.750;2023-01-29T00:14:25;36.46;35.52;37.47;;
69614;Laerm;57159;52.472;4.750;2023-01-29T00:14:36;36.48;35.38;37.47;;
69614;Laerm;57159;52.472;4.750;2023-01-29T00:14:46;36.47;35.48;37.78;;
69614;Laerm;57159;52.472;4.750;2023-01-29T00:14:57;36.48;35.38;37.67;;
69614;Laerm;57159;52.472;4.750;2023-01-29T00:15:07;36.46;34.92;37.60;;
69614;Laerm;57159;52.472;4.750;2023-01-29T00:15:17;36.46;35.55;37.81;;
69614;Laerm;57159;52.472;4.750;2023-01-29T00:15:27;36.50;35.63;37.73;;
69614;Laerm;57159;52.472;4.750;2023-01-29T00:15:38;36.53;35.39;37.68;;
69614;Laerm;57159;52.472;4.750;2023-01-29T00:15:54;36.53;35.51;37.64;;
69614;Laerm;57159;52.472;4.750;2023-01-29T00:16:05;36.53;35.23;37.75;;
69614;Laerm;57159;52.472;4.750;2023-01-29T00:16:16;36.53;35.31;37.86;;
69614;Laerm;57159;52.472;4.750;2023-01-29T00:16:26;36.52;35.53;37.75;;
69614;Laerm;57159;52.472;4.750;2023-01-29T00:16:36;36.47;35.27;37.60;;
69614;Laerm;57159;52.472;4.750;2023-01-29T00:16:46;36.51;35.43;37.59;;
69614;Laerm;57159;52.472;4.750;2023-01-29T00:16:57;36.50;35.62;37.51;;
69614;Laerm;57159;52.472;4.750;2023-01-29T00:17:07;36.45;35.21;37.68;;
69614;Laerm;57159;52.472;4.750;2023-01-29T00:17:17;36.47;35.55;37.58;;
69614;Laerm;57159;52.472;4.750;2023-01-29T00:17:27;36.51;35.67;37.48;;
69614;Laerm;57159;52.472;4.750;2023-01-29T00:17:38;36.51;35.35;37.65;;
69614;Laerm;57159;52.472;4.750;2023-01-29T00:17:48;36.58;35.48;37.51;;
69614;Laerm;57159;52.472;4.750;2023-01-29T00:17:58;36.57;35.31;37.92;;
69614;Laerm;57159;52.472;4.750;2023-01-29T00:18:08;36.53;35.38;37.50;;
69614;Laerm;57159;52.472;4.750;2023-01-29T00:18:19;36.63;35.46;37.89;;
69614;Laerm;57159;52.472;4.750;2023-01-29T00:18:29;36.60;35.71;37.78;;
69614;Laerm;57159;52.472;4.750;2023-01-29T00:18:40;36.58;35.35;37.78;;
69614;Laerm;57159;52.472;4.750;2023-01-29T00:18:50;36.58;35.63;37.62;;
69614;Laerm;57159;52.472;4.750;2023-01-29T00:19:01;36.61;35.44;37.75;;
69614;Laerm;57159;52.472;4.750;2023-01-29T00:19:11;36.58;35.55;37.72;;
69614;Laerm;57159;52.472;4.750;2023-01-29T00:19:22;36.58;35.47;37.64;;
69614;Laerm;57159;52.472;4.750;2023-01-29T00:19:32;36.56;35.46;37.96;;
69614;Laerm;57159;52.472;4.750;2023-01-29T00:19:42;36.51;35.62;37.50;;
69614;Laerm;57159;52.472;4.750;2023-01-29T00:19:52;36.54;35.52;37.75;;
69614;Laerm;57159;52.472;4.750;2023-01-29T00:20:03;36.55;35.63;37.50;;
69614;Laerm;57159;52.472;4.750;2023-01-29T00:20:13;36.55;35.56;37.78;;
69614;Laerm;57159;52.472;4.750;2023-01-29T00:20:24;36.56;35.70;37.56;;
69614;Laerm;57159;52.472;4.750;2023-01-29T00:20:34;36.59;35.43;37.42;;
69614;Laerm;57159;52.472;4.750;2023-01-29T00:20:45;36.63;35.74;37.62;;
69614;Laerm;57159;52.472;4.750;2023-01-29T00:20:55;36.62;35.65;37.61;;
69614;Laerm;57159;52.472;4.750;2023-01-29T00:21:09;36.62;35.45;37.43;;
69614;Laerm;57159;52.472;4.750;2023-01-29T00:21:20;36.59;35.27;37.97;;
69614;Laerm;57159;52.472;4.750;2023-01-29T00:21:31;36.62;35.57;37.45;;
69614;Laerm;57159;52.472;4.750;2023-01-29T00:21:41;36.60;35.76;37.69;;
69614;Laerm;57159;52.472;4.750;2023-01-29T00:21:52;38.92;35.55;60.01;;
69614;Laerm;57159;52.472;4.750;2023-01-29T00:22:02;36.62;35.44;37.81;;
69614;Laerm;57159;52.472;4.750;2023-01-29T00:22:13;36.64;35.61;37.68;;
69614;Laerm;57159;52.472;4.750;2023-01-29T00:22:23;36.59;35.21;37.70;;
69614;Laerm;57159;52.472;4.750;2023-01-29T00:22:33;36.57;35.52;37.78;;
69614;Laerm;57159;52.472;4.750;2023-01-29T00:22:43;36.62;35.48;37.92;;
69614;Laerm;57159;52.472;4.750;2023-01-29T00:22:54;36.62;35.76;37.57;;
69614;Laerm;57159;52.472;4.750;2023-01-29T00:23:04;36.57;35.61;37.64;;
69614;Laerm;57159;52.472;4.750;2023-01-29T00:23:14;36.63;35.68;38.04;;
69614;Laerm;57159;52.472;4.750;2023-01-29T00:23:25;36.65;35.62;38.95;;
69614;Laerm;57159;52.472;4.750;2023-01-29T00:23:35;36.64;35.36;38.11;;
69614;Laerm;57159;52.472;4.750;2023-01-29T00:23:45;36.64;35.68;38.09;;
69614;Laerm;57159;52.472;4.750;2023-01-29T00:23:55;36.67;35.49;39.52;;
69614;Laerm;57159;52.472;4.750;2023-01-29T00:24:06;36.67;35.70;37.83;;
69614;Laerm;57159;52.472;4.750;2023-01-29T00:24:16;36.73;35.65;42.08;;
69614;Laerm;57159;52.472;4.750;2023-01-29T00:24:26;36.69;35.63;37.73;;
69614;Laerm;57159;52.472;4.750;2023-01-29T00:24:37;36.66;35.59;37.74;;
69614;Laerm;57159;52.472;4.750;2023-01-29T00:24:47;36.63;35.75;37.93;;
69614;Laerm;57159;52.472;4.750;2023-01-29T00:24:57;36.60;35.66;37.68;;
69614;Laerm;57159;52.472;4.750;2023-01-29T00:25:08;36.63;35.84;37.36;;
69614;Laerm;57159;52.472;4.750;2023-01-29T00:25:18;36.68;35.70;37.88;;
69614;Laerm;57159;52.472;4.750;2023-01-29T00:25:28;37.19;35.84;38.92;;
69614;Laerm;57159;52.472;4.750;2023-01-29T00:25:40;37.16;35.84;39.59;;
69614;Laerm;57159;52.472;4.750;2023-01-29T00:25:50;36.82;35.86;37.92;;
69614;Laerm;57159;52.472;4.750;2023-01-29T00:26:00;36.83;35.85;40.90;;
69614;Laerm;57159;52.472;4.750;2023-01-29T00:26:11;36.82;35.99;38.28;;
69614;Laerm;57159;52.472;4.750;2023-01-29T00:26:21;36.73;35.79;38.31;;
69614;Laerm;57159;52.472;4.750;2023-01-29T00:26:31;36.74;35.77;37.56;;
69614;Laerm;57159;52.472;4.750;2023-01-29T00:26:42;36.72;35.62;37.95;;
69614;Laerm;57159;52.472;4.750;2023-01-29T00:26:52;36.74;35.60;37.70;;
69614;Laerm;57159;52.472;4.750;2023-01-29T00:27:02;36.75;35.75;37.85;;
69614;Laerm;57159;52.472;4.750;2023-01-29T00:27:13;36.82;35.68;41.09;;
69614;Laerm;57159;52.472;4.750;2023-01-29T00:27:23;36.78;35.88;37.84;;
69614;Laerm;57159;52.472;4.750;2023-01-29T00:27:33;36.79;35.66;41.88;;
69614;Laerm;57159;52.472;4.750;2023-01-29T00:27:44;36.74;35.83;38.08;;
69614;Laerm;57159;52.472;4.750;2023-01-29T00:27:54;36.75;35.78;38.08;;
69614;Laerm;57159;52.472;4.750;2023-01-29T00:28:04;36.74;35.76;37.77;;
69614;Laerm;57159;52.472;4.750;2023-01-29T00:28:14;36.68;35.49;37.95;;
69614;Laerm;57159;52.472;4.750;2023-01-29T00:28:25;36.70;35.80;38.08;;
69614;Laerm;57159;52.472;4.750;2023-01-29T00:28:35;36.71;35.70;38.13;;
69614;Laerm;57159;52.472;4.750;2023-01-29T00:28:45;36.70;35.72;38.07;;
69614;Laerm;57159;52.472;4.750;2023-01-29T00:28:55;36.68;35.82;37.89;;
69614;Laerm;57159;52.472;4.750;2023-01-29T00:29:06;36.72;35.81;39.43;;
69614;Laerm;57159;52.472;4.750;2023-01-29T00:29:17;36.74;35.57;39.92;;
69614;Laerm;57159;52.472;4.750;2023-01-29T00:29:27;36.71;35.76;37.62;;
69614;Laerm;57159;52.472;4.750;2023-01-29T00:29:37;36.72;35.74;37.69;;
69614;Laerm;57159;52.472;4.750;2023-01-29T00:29:48;36.69;35.57;37.87;;
69614;Laerm;57159;52.472;4.750;2023-01-29T00:30:18;36.70;35.69;38.13;;
69614;Laerm;57159;52.472;4.750;2023-01-29T00:30:28;36.69;35.84;37.86;;
69614;Laerm;57159;52.472;4.750;2023-01-29T00:30:38;36.73;35.70;37.91;;
69614;Laerm;57159;52.472;4.750;2023-01-29T00:30:48;36.69;35.79;38.28;;
69614;Laerm;57159;52.472;4.750;2023-01-29T00:31:05;36.76;35.75;38.22;;
69614;Laerm;57159;52.472;4.750;2023-01-29T00:31:17;36.73;35.49;37.91;;
69614;Laerm;57159;52.472;4.750;2023-01-29T00:31:27;36.75;35.72;38.00;;
69614;Laerm;57159;52.472;4.750;2023-01-29T00:31:38;36.77;35.70;37.84;;
69614;Laerm;57159;52.472;4.750;2023-01-29T00:31:48;36.77;35.77;37.90;;
69614;Laerm;57159;52.472;4.750;2023-01-29T00:31:58;36.75;35.81;38.47;;
69614;Laerm;57159;52.472;4.750;2023-01-29T00:32:08;36.70;35.79;37.75;;
69614;Laerm;57159;52.472;4.750;2023-01-29T00:32:19;36.73;35.57;37.67;;
69614;Laerm;57159;52.472;4.750;2023-01-29T00:32:29;36.75;35.72;37.67;;
69614;Laerm;57159;52.472;4.750;2023-01-29T00:32:39;36.74;35.58;38.00;;
69614;Laerm;57159;52.472;4.750;2023-01-29T00:32:49;36.83;35.77;38.25;;
69614;Laerm;57159;52.472;4.750;2023-01-29T00:33:00;36.83;35.72;37.98;;
69614;Laerm;57159;52.472;4.750;2023-01-29T00:33:10;36.74;35.54;37.73;;
69614;Laerm;57159;52.472;4.750;2023-01-29T00:33:22;36.79;35.68;38.65;;
69614;Laerm;57159;52.472;4.750;2023-01-29T00:33:32;36.78;35.67;37.94;;
69614;Laerm;57159;52.472;4.750;2023-01-29T00:33:43;36.78;35.79;38.11;;
69614;Laerm;57159;52.472;4.750;2023-01-29T00:33:53;36.80;35.51;38.14;;
69614;Laerm;57159;52.472;4.750;2023-01-29T00:34:03;36.81;35.85;37.95;;
69614;Laerm;57159;52.472;4.750;2023-01-29T00:34:14;36.81;35.85;37.88;;
69614;Laerm;57159;52.472;4.750;2023-01-29T00:34:24;36.81;35.85;37.82;;
69614;Laerm;57159;52.472;4.750;2023-01-29T00:34:34;36.84;35.89;37.82;;
69614;Laerm;57159;52.472;4.750;2023-01-29T00:34:44;36.80;35.60;37.69;;
69614;Laerm;57159;52.472;4.750;2023-01-29T00:34:55;36.81;35.92;37.86;;
69614;Laerm;57159;52.472;4.750;2023-01-29T00:35:05;36.84;35.69;38.05;;
69614;Laerm;57159;52.472;4.750;2023-01-29T00:35:16;36.87;35.69;38.09;;
69614;Laerm;57159;52.472;4.750;2023-01-29T00:35:26;36.86;35.68;37.98;;
69614;Laerm;57159;52.472;4.750;2023-01-29T00:35:38;36.87;35.71;37.83;;
69614;Laerm;57159;52.472;4.750;2023-01-29T00:35:48;36.83;35.99;37.80;;
69614;Laerm;57159;52.472;4.750;2023-01-29T00:36:00;36.86;35.94;37.98;;
69614;Laerm;57159;52.472;4.750;2023-01-29T00:36:13;36.86;35.63;38.01;;
69614;Laerm;57159;52.472;4.750;2023-01-29T00:36:24;36.87;35.77;38.10;;
69614;Laerm;57159;52.472;4.750;2023-01-29T00:36:34;36.88;35.89;38.03;;
69614;Laerm;57159;52.472;4.750;2023-01-29T00:36:44;36.88;35.99;37.89;;
69614;Laerm;57159;52.472;4.750;2023-01-29T00:36:55;36.84;36.04;37.96;;
69614;Laerm;57159;52.472;4.750;2023-01-29T00:37:13;36.86;35.96;38.13;;
69614;Laerm;57159;52.472;4.750;2023-01-29T00:37:23;36.91;35.88;38.02;;
69614;Laerm;57159;52.472;4.750;2023-01-29T00:37:34;36.90;35.89;38.21;;
69614;Laerm;57159;52.472;4.750;2023-01-29T00:37:44;36.92;35.95;38.14;;
69614;Laerm;57159;52.472;4.750;2023-01-29T00:37:54;36.89;36.03;37.76;;
69614;Laerm;57159;52.472;4.750;2023-01-29T00:38:05;36.89;35.83;39.37;;
69614;Laerm;57159;52.472;4.750;2023-01-29T00:38:15;36.89;36.11;38.08;;
69614;Laerm;57159;52.472;4.750;2023-01-29T00:38:25;36.93;36.09;38.01;;
69614;Laerm;57159;52.472;4.750;2023-01-29T00:38:36;36.92;35.87;39.04;;
69614;Laerm;57159;52.472;4.750;2023-01-29T00:38:47;36.86;35.93;37.64;;
69614;Laerm;57159;52.472;4.750;2023-01-29T00:39:07;36.84;35.88;37.82;;
69614;Laerm;57159;52.472;4.750;2023-01-29T00:39:19;36.91;35.52;38.00;;
69614;Laerm;57159;52.472;4.750;2023-01-29T00:39:34;36.88;35.91;38.17;;
69614;Laerm;57159;52.472;4.750;2023-01-29T00:39:47;36.91;35.90;38.11;;
69614;Laerm;57159;52.472;4.750;2023-01-29T00:39:58;36.97;36.03;38.09;;
69614;Laerm;57159;52.472;4.750;2023-01-29T00:40:08;36.93;35.93;37.73;;
69614;Laerm;57159;52.472;4.750;2023-01-29T00:40:19;36.97;35.92;40.46;;
69614;Laerm;57159;52.472;4.750;2023-01-29T00:40:29;36.90;36.09;38.11;;
69614;Laerm;57159;52.472;4.750;2023-01-29T00:41:06;36.91;35.89;38.18;;
69614;Laerm;57159;52.472;4.750;2023-01-29T00:41:35;36.91;35.87;38.54;;
69614;Laerm;57159;52.472;4.750;2023-01-29T00:42:05;36.92;35.76;39.61;;
69614;Laerm;57159;52.472;4.750;2023-01-29T00:42:34;36.95;35.86;38.08;;
69614;Laerm;57159;52.472;4.750;2023-01-29T00:43:03;37.01;35.94;41.43;;
69614;Laerm;57159;52.472;4.750;2023-01-29T00:43:32;36.96;35.82;38.87;;
69614;Laerm;57159;52.472;4.750;2023-01-29T00:44:01;36.92;35.93;38.05;;
69614;Laerm;57159;52.472;4.750;2023-01-29T00:44:34;36.93;35.87;39.14;;
69614;Laerm;57159;52.472;4.750;2023-01-29T00:45:03;36.96;35.59;38.88;;
69614;Laerm;57159;52.472;4.750;2023-01-29T00:45:14;36.94;35.91;38.06;;
69614;Laerm;57159;52.472;4.750;2023-01-29T00:45:24;36.95;35.96;38.08;;
69614;Laerm;57159;52.472;4.750;2023-01-29T00:45:34;36.99;35.91;38.37;;
69614;Laerm;57159;52.472;4.750;2023-01-29T00:45:48;37.01;36.10;38.24;;
69614;Laerm;57159;52.472;4.750;2023-01-29T00:45:58;37.00;35.86;38.54;;
69614;Laerm;57159;52.472;4.750;2023-01-29T00:46:09;37.04;36.14;38.53;;
69614;Laerm;57159;52.472;4.750;2023-01-29T00:46:19;37.06;36.02;38.05;;
69614;Laerm;57159;52.472;4.750;2023-01-29T00:46:29;36.99;35.98;38.30;;
69614;Laerm;57159;52.472;4.750;2023-01-29T00:46:40;37.06;35.74;39.12;;
69614;Laerm;57159;52.472;4.750;2023-01-29T00:46:50;37.01;36.03;39.62;;
69614;Laerm;57159;52.472;4.750;2023-01-29T00:47:01;37.01;35.83;38.32;;
69614;Laerm;57159;52.472;4.750;2023-01-29T00:47:11;37.03;36.08;38.19;;
69614;Laerm;57159;52.472;4.750;2023-01-29T00:47:39;36.99;35.91;38.29;;
69614;Laerm;57159;52.472;4.750;2023-01-29T00:47:50;37.00;35.90;38.26;;
69614;Laerm;57159;52.472;4.750;2023-01-29T00:48:00;36.94;35.79;37.96;;
69614;Laerm;57159;52.472;4.750;2023-01-29T00:48:10;37.00;36.07;38.52;;
69614;Laerm;57159;52.472;4.750;2023-01-29T00:48:20;36.96;35.85;38.25;;
69614;Laerm;57159;52.472;4.750;2023-01-29T00:48:31;37.00;36.03;38.00;;
69614;Laerm;57159;52.472;4.750;2023-01-29T00:48:42;37.00;35.94;38.46;;
69614;Laerm;57159;52.472;4.750;2023-01-29T00:48:52;37.01;36.08;38.05;;
69614;Laerm;57159;52.472;4.750;2023-01-29T00:49:02;37.04;36.04;38.20;;
69614;Laerm;57159;52.472;4.750;2023-01-29T00:49:13;37.03;36.06;38.19;;
69614;Laerm;57159;52.472;4.750;2023-01-29T00:49:23;37.04;35.90;38.36;;
69614;Laerm;57159;52.472;4.750;2023-01-29T00:49:34;37.05;35.92;38.43;;
69614;Laerm;57159;52.472;4.750;2023-01-29T00:49:45;37.09;35.95;38.08;;
69614;Laerm;57159;52.472;4.750;2023-01-29T00:49:55;37.05;36.09;38.17;;
69614;Laerm;57159;52.472;4.750;2023-01-29T00:50:06;37.08;36.04;38.53;;
69614;Laerm;57159;52.472;4.750;2023-01-29T00:50:17;37.06;36.06;38.53;;
69614;Laerm;57159;52.472;4.750;2023-01-29T00:50:28;37.03;36.17;38.17;;
69614;Laerm;57159;52.472;4.750;2023-01-29T00:50:38;37.04;35.99;38.44;;
69614;Laerm;57159;52.472;4.750;2023-01-29T00:50:49;36.99;35.96;38.20;;
69614;Laerm;57159;52.472;4.750;2023-01-29T00:50:59;37.08;35.97;38.90;;
69614;Laerm;57159;52.472;4.750;2023-01-29T00:51:10;36.95;35.83;37.90;;
69614;Laerm;57159;52.472;4.750;2023-01-29T00:51:20;37.03;36.17;38.42;;
69614;Laerm;57159;52.472;4.750;2023-01-29T00:51:30;36.95;36.12;37.77;;
69614;Laerm;57159;52.472;4.750;2023-01-29T00:51:40;36.96;35.79;37.81;;
69614;Laerm;57159;52.472;4.750;2023-01-29T00:51:51;37.01;36.20;38.25;;
69614;Laerm;57159;52.472;4.750;2023-01-29T00:52:20;36.97;35.94;38.40;;
69614;Laerm;57159;52.472;4.750;2023-01-29T00:52:33;36.96;35.95;38.15;;
69614;Laerm;57159;52.472;4.750;2023-01-29T00:52:45;36.98;35.71;38.35;;
69614;Laerm;57159;52.472;4.750;2023-01-29T00:52:57;36.95;35.63;38.06;;
69614;Laerm;57159;52.472;4.750;2023-01-29T00:53:08;36.98;35.72;38.40;;
69614;Laerm;57159;52.472;4.750;2023-01-29T00:53:18;37.01;36.08;38.36;;
69614;Laerm;57159;52.472;4.750;2023-01-29T00:53:28;37.07;36.26;38.33;;
69614;Laerm;57159;52.472;4.750;2023-01-29T00:53:39;37.05;36.01;38.55;;
69614;Laerm;57159;52.472;4.750;2023-01-29T00:53:49;37.05;36.20;38.11;;
69614;Laerm;57159;52.472;4.750;2023-01-29T00:53:59;37.04;36.12;38.44;;
69614;Laerm;57159;52.472;4.750;2023-01-29T00:54:10;37.05;35.99;38.32;;
69614;Laerm;57159;52.472;4.750;2023-01-29T00:54:21;37.06;35.98;38.23;;
69614;Laerm;57159;52.472;4.750;2023-01-29T00:54:31;37.07;36.01;38.21;;
69614;Laerm;57159;52.472;4.750;2023-01-29T00:54:41;37.17;36.24;46.54;;
69614;Laerm;57159;52.472;4.750;2023-01-29T00:54:52;37.05;35.94;38.09;;
69614;Laerm;57159;52.472;4.750;2023-01-29T00:55:04;37.03;36.06;38.72;;
69614;Laerm;57159;52.472;4.750;2023-01-29T00:55:14;37.05;35.69;38.51;;
69614;Laerm;57159;52.472;4.750;2023-01-29T00:55:25;37.05;36.07;38.46;;
69614;Laerm;57159;52.472;4.750;2023-01-29T00:55:35;37.05;36.08;38.44;;
69614;Laerm;57159;52.472;4.750;2023-01-29T00:55:45;37.08;35.79;38.72;;
69614;Laerm;57159;52.472;4.750;2023-01-29T00:55:55;37.04;35.92;38.29;;
69614;Laerm;57159;52.472;4.750;2023-01-29T00:56:06;37.03;36.07;38.20;;
69614;Laerm;57159;52.472;4.750;2023-01-29T00:56:16;37.04;35.90;38.40;;
69614;Laerm;57159;52.472;4.750;2023-01-29T00:56:29;37.01;36.15;38.45;;
69614;Laerm;57159;52.472;4.750;2023-01-29T00:56:40;37.07;36.12;38.34;;
69614;Laerm;57159;52.472;4.750;2023-01-29T00:56:50;37.06;35.90;38.38;;
69614;Laerm;57159;52.472;4.750;2023-01-29T00:57:01;37.06;35.99;38.66;;
69614;Laerm;57159;52.472;4.750;2023-01-29T00:57:11;37.05;36.01;38.09;;
69614;Laerm;57159;52.472;4.750;2023-01-29T00:57:22;37.07;35.77;38.43;;
69614;Laerm;57159;52.472;4.750;2023-01-29T00:57:33;37.10;35.85;38.55;;
69614;Laerm;57159;52.472;4.750;2023-01-29T00:57:44;37.01;35.89;38.44;;
69614;Laerm;57159;52.472;4.750;2023-01-29T00:57:54;37.08;36.05;38.24;;
69614;Laerm;57159;52.472;4.750;2023-01-29T00:58:04;37.07;36.01;38.37;;
69614;Laerm;57159;52.472;4.750;2023-01-29T00:58:15;37.08;35.89;38.61;;
69614;Laerm;57159;52.472;4.750;2023-01-29T00:58:31;37.08;36.15;38.82;;
69614;Laerm;57159;52.472;4.750;2023-01-29T00:58:43;37.02;36.01;38.41;;
69614;Laerm;57159;52.472;4.750;2023-01-29T00:58:53;37.04;35.96;38.84;;
69614;Laerm;57159;52.472;4.750;2023-01-29T00:59:03;37.01;36.16;37.91;;
69614;Laerm;57159;52.472;4.750;2023-01-29T00:59:14;37.03;36.14;38.28;;
69614;Laerm;57159;52.472;4.750;2023-01-29T00:59:24;37.05;36.15;38.82;;
69614;Laerm;57159;52.472;4.750;2023-01-29T00:59:34;37.03;35.95;38.19;;
69614;Laerm;57159;52.472;4.750;2023-01-29T00:59:44;37.03;36.02;38.64;;
69614;Laerm;57159;52.472;4.750;2023-01-29T00:59:55;36.98;35.89;38.74;;
69614;Laerm;57159;52.472;4.750;2023-01-29T01:00:06;37.03;36.05;38.84;;
69614;Laerm;57159;52.472;4.750;2023-01-29T01:00:17;37.04;36.00;39.72;;
69614;Laerm;57159;52.472;4.750;2023-01-29T01:00:28;36.95;36.07;38.48;;
69614;Laerm;57159;52.472;4.750;2023-01-29T01:00:38;36.98;36.11;38.27;;
69614;Laerm;57159;52.472;4.750;2023-01-29T01:00:48;36.99;36.05;38.21;;
69614;Laerm;57159;52.472;4.750;2023-01-29T01:00:59;36.98;36.13;38.31;;
69614;Laerm;57159;52.472;4.750;2023-01-29T01:01:10;37.01;35.96;38.32;;
69614;Laerm;57159;52.472;4.750;2023-01-29T01:01:22;37.05;35.90;38.51;;
69614;Laerm;57159;52.472;4.750;2023-01-29T01:01:51;36.98;36.02;38.53;;
69614;Laerm;57159;52.472;4.750;2023-01-29T01:02:20;36.96;35.38;38.44;;
69614;Laerm;57159;52.472;4.750;2023-01-29T01:02:49;36.96;35.78;38.57;;
69614;Laerm;57159;52.472;4.750;2023-01-29T01:03:17;36.99;35.80;38.56;;
69614;Laerm;57159;52.472;4.750;2023-01-29T01:03:27;36.92;35.95;38.23;;
69614;Laerm;57159;52.472;4.750;2023-01-29T01:03:38;36.90;35.74;38.16;;
69614;Laerm;57159;52.472;4.750;2023-01-29T01:03:51;36.95;35.96;38.58;;
69614;Laerm;57159;52.472;4.750;2023-01-29T01:04:01;36.95;35.91;38.22;;
69614;Laerm;57159;52.472;4.750;2023-01-29T01:04:11;36.90;35.92;37.84;;
69614;Laerm;57159;52.472;4.750;2023-01-29T01:04:22;36.91;35.90;38.16;;
69614;Laerm;57159;52.472;4.750;2023-01-29T01:04:32;36.85;35.92;37.87;;
69614;Laerm;57159;52.472;4.750;2023-01-29T01:04:42;36.85;35.74;37.75;;
69614;Laerm;57159;52.472;4.750;2023-01-29T01:04:53;36.86;35.98;37.79;;